sensor_id;sensor_type;location;lat;lon;timestamp;P1;durP1;ratioP1;P2;durP2;ratioP2
73359;SDS011;63092;43.582;19.528;2023-07-31T00:00:35;8.18;;;5.30;;
73359;SDS011;63092;43.582;19.528;2023-07-31T00:03:00;8.23;;;5.07;;
73359;SDS011;63092;43.582;19.528;2023-07-31T00:05:26;8.00;;;5.35;;
73359;SDS011;63092;43.582;19.528;2023-07-31T00:07:52;9.00;;;5.32;;
73359;SDS011;63092;43.582;19.528;2023-07-31T00:10:19;6.47;;;5.13;;
73359;SDS011;63092;43.582;19.528;2023-07-31T00:12:45;9.38;;;5.38;;
73359;SDS011;63092;43.582;19.528;2023-07-31T00:15:11;8.85;;;5.15;;
73359;SDS011;63092;43.582;19.528;2023-07-31T00:17:39;9.85;;;5.47;;
73359;SDS011;63092;43.582;19.528;2023-07-31T00:20:05;9.70;;;5.57;;
73359;SDS011;63092;43.582;19.528;2023-07-31T00:22:31;8.45;;;5.43;;
73359;SDS011;63092;43.582;19.528;2023-07-31T00:24:56;7.05;;;5.07;;
73359;SDS011;63092;43.582;19.528;2023-07-31T00:27:22;8.27;;;5.35;;
73359;SDS011;63092;43.582;19.528;2023-07-31T00:29:48;9.75;;;5.22;;
73359;SDS011;63092;43.582;19.528;2023-07-31T00:32:14;8.35;;;5.50;;
73359;SDS011;63092;43.582;19.528;2023-07-31T00:34:40;7.97;;;5.72;;
73359;SDS011;63092;43.582;19.528;2023-07-31T00:37:05;10.88;;;5.47;;
73359;SDS011;63092;43.582;19.528;2023-07-31T00:39:33;12.85;;;5.57;;
73359;SDS011;63092;43.582;19.528;2023-07-31T00:41:59;7.55;;;5.55;;
73359;SDS011;63092;43.582;19.528;2023-07-31T00:44:24;7.10;;;5.40;;
73359;SDS011;63092;43.582;19.528;2023-07-31T00:46:50;8.55;;;5.45;;
73359;SDS011;63092;43.582;19.528;2023-07-31T00:49:16;8.60;;;5.57;;
73359;SDS011;63092;43.582;19.528;2023-07-31T00:51:42;7.55;;;5.47;;
73359;SDS011;63092;43.582;19.528;2023-07-31T00:54:08;8.75;;;5.80;;
73359;SDS011;63092;43.582;19.528;2023-07-31T00:56:34;7.45;;;5.35;;
73359;SDS011;63092;43.582;19.528;2023-07-31T00:59:00;8.40;;;5.47;;
73359;SDS011;63092;43.582;19.528;2023-07-31T01:01:25;9.20;;;5.43;;
73359;SDS011;63092;43.582;19.528;2023-07-31T01:03:51;9.80;;;5.25;;
73359;SDS011;63092;43.582;19.528;2023-07-31T01:06:27;7.22;;;5.30;;
73359;SDS011;63092;43.582;19.528;2023-07-31T01:09:04;9.85;;;5.60;;
73359;SDS011;63092;43.582;19.528;2023-07-31T01:11:57;9.93;;;6.07;;
73359;SDS011;63092;43.582;19.528;2023-07-31T01:14:26;9.15;;;5.70;;
73359;SDS011;63092;43.582;19.528;2023-07-31T01:16:52;8.15;;;5.60;;
73359;SDS011;63092;43.582;19.528;2023-07-31T01:19:18;9.77;;;5.50;;
73359;SDS011;63092;43.582;19.528;2023-07-31T01:27:58;8.32;;;5.32;;
73359;SDS011;63092;43.582;19.528;2023-07-31T01:30:27;7.93;;;5.43;;
73359;SDS011;63092;43.582;19.528;2023-07-31T01:33:01;10.00;;;5.60;;
73359;SDS011;63092;43.582;19.528;2023-07-31T01:35:32;10.18;;;6.20;;
73359;SDS011;63092;43.582;19.528;2023-07-31T01:37:59;8.65;;;5.40;;
73359;SDS011;63092;43.582;19.528;2023-07-31T01:40:25;7.43;;;5.72;;
73359;SDS011;63092;43.582;19.528;2023-07-31T01:42:50;8.82;;;5.22;;
73359;SDS011;63092;43.582;19.528;2023-07-31T01:45:16;10.68;;;5.43;;
73359;SDS011;63092;43.582;19.528;2023-07-31T01:47:42;9.02;;;5.95;;
73359;SDS011;63092;43.582;19.528;2023-07-31T01:50:08;12.68;;;5.90;;
73359;SDS011;63092;43.582;19.528;2023-07-31T01:52:34;8.35;;;5.90;;
73359;SDS011;63092;43.582;19.528;2023-07-31T01:55:00;8.70;;;5.90;;
73359;SDS011;63092;43.582;19.528;2023-07-31T01:57:25;8.25;;;5.70;;
73359;SDS011;63092;43.582;19.528;2023-07-31T01:59:52;11.98;;;5.78;;
73359;SDS011;63092;43.582;19.528;2023-07-31T02:02:21;8.50;;;6.23;;
73359;SDS011;63092;43.582;19.528;2023-07-31T02:04:48;11.70;;;6.22;;
73359;SDS011;63092;43.582;19.528;2023-07-31T02:07:14;8.13;;;5.65;;
73359;SDS011;63092;43.582;19.528;2023-07-31T02:09:40;11.18;;;6.60;;
73359;SDS011;63092;43.582;19.528;2023-07-31T02:12:06;8.82;;;5.88;;
73359;SDS011;63092;43.582;19.528;2023-07-31T02:14:33;11.68;;;7.63;;
73359;SDS011;63092;43.582;19.528;2023-07-31T02:16:59;10.15;;;7.18;;
73359;SDS011;63092;43.582;19.528;2023-07-31T02:19:25;11.98;;;8.48;;
73359;SDS011;63092;43.582;19.528;2023-07-31T02:21:51;15.60;;;9.18;;
73359;SDS011;63092;43.582;19.528;2023-07-31T02:24:16;16.13;;;9.57;;
73359;SDS011;63092;43.582;19.528;2023-07-31T02:26:42;17.02;;;10.75;;
73359;SDS011;63092;43.582;19.528;2023-07-31T02:29:08;17.80;;;10.60;;
73359;SDS011;63092;43.582;19.528;2023-07-31T02:31:34;17.23;;;10.45;;
73359;SDS011;63092;43.582;19.528;2023-07-31T02:33:59;12.80;;;9.30;;
73359;SDS011;63092;43.582;19.528;2023-07-31T02:36:25;12.23;;;8.15;;
73359;SDS011;63092;43.582;19.528;2023-07-31T02:38:51;14.07;;;9.30;;
73359;SDS011;63092;43.582;19.528;2023-07-31T02:41:17;14.55;;;8.85;;
73359;SDS011;63092;43.582;19.528;2023-07-31T02:43:42;13.13;;;9.60;;
73359;SDS011;63092;43.582;19.528;2023-07-31T02:46:09;15.98;;;8.77;;
73359;SDS011;63092;43.582;19.528;2023-07-31T02:48:35;13.88;;;8.90;;
73359;SDS011;63092;43.582;19.528;2023-07-31T02:51:00;12.80;;;8.20;;
73359;SDS011;63092;43.582;19.528;2023-07-31T02:53:26;12.65;;;7.93;;
73359;SDS011;63092;43.582;19.528;2023-07-31T02:55:52;11.32;;;7.70;;
73359;SDS011;63092;43.582;19.528;2023-07-31T02:58:17;10.90;;;8.00;;
73359;SDS011;63092;43.582;19.528;2023-07-31T03:00:43;12.40;;;7.70;;
73359;SDS011;63092;43.582;19.528;2023-07-31T03:03:09;10.63;;;7.35;;
73359;SDS011;63092;43.582;19.528;2023-07-31T03:05:35;10.73;;;7.38;;
73359;SDS011;63092;43.582;19.528;2023-07-31T03:08:01;11.40;;;7.00;;
73359;SDS011;63092;43.582;19.528;2023-07-31T03:10:26;9.48;;;6.60;;
73359;SDS011;63092;43.582;19.528;2023-07-31T03:12:52;11.07;;;7.18;;
73359;SDS011;63092;43.582;19.528;2023-07-31T03:15:18;10.38;;;7.78;;
73359;SDS011;63092;43.582;19.528;2023-07-31T03:17:44;9.52;;;6.82;;
73359;SDS011;63092;43.582;19.528;2023-07-31T03:20:09;10.82;;;7.20;;
73359;SDS011;63092;43.582;19.528;2023-07-31T03:22:35;10.70;;;7.20;;
73359;SDS011;63092;43.582;19.528;2023-07-31T03:25:02;10.52;;;6.60;;
73359;SDS011;63092;43.582;19.528;2023-07-31T03:27:28;9.73;;;6.63;;
73359;SDS011;63092;43.582;19.528;2023-07-31T03:29:53;10.35;;;6.97;;
73359;SDS011;63092;43.582;19.528;2023-07-31T03:32:19;9.00;;;6.72;;
73359;SDS011;63092;43.582;19.528;2023-07-31T03:34:45;10.75;;;7.63;;
73359;SDS011;63092;43.582;19.528;2023-07-31T03:37:11;10.88;;;7.32;;
73359;SDS011;63092;43.582;19.528;2023-07-31T03:39:37;11.82;;;7.20;;
73359;SDS011;63092;43.582;19.528;2023-07-31T03:42:02;10.30;;;7.68;;
73359;SDS011;63092;43.582;19.528;2023-07-31T03:44:28;11.45;;;6.82;;
73359;SDS011;63092;43.582;19.528;2023-07-31T03:46:54;10.13;;;7.32;;
73359;SDS011;63092;43.582;19.528;2023-07-31T03:49:20;11.00;;;7.43;;
73359;SDS011;63092;43.582;19.528;2023-07-31T03:51:45;11.85;;;8.07;;
73359;SDS011;63092;43.582;19.528;2023-07-31T03:54:11;11.75;;;7.72;;
73359;SDS011;63092;43.582;19.528;2023-07-31T03:56:38;9.27;;;7.22;;
73359;SDS011;63092;43.582;19.528;2023-07-31T03:59:04;12.65;;;7.93;;
73359;SDS011;63092;43.582;19.528;2023-07-31T04:01:30;10.25;;;8.15;;
73359;SDS011;63092;43.582;19.528;2023-07-31T04:03:55;11.07;;;7.68;;
73359;SDS011;63092;43.582;19.528;2023-07-31T04:06:21;11.77;;;8.02;;
73359;SDS011;63092;43.582;19.528;2023-07-31T04:08:47;10.70;;;7.28;;
73359;SDS011;63092;43.582;19.528;2023-07-31T04:11:12;14.55;;;8.80;;
73359;SDS011;63092;43.582;19.528;2023-07-31T04:13:38;14.13;;;8.35;;
73359;SDS011;63092;43.582;19.528;2023-07-31T04:16:04;9.60;;;7.20;;
73359;SDS011;63092;43.582;19.528;2023-07-31T04:18:30;14.35;;;10.27;;
73359;SDS011;63092;43.582;19.528;2023-07-31T04:20:57;13.32;;;7.93;;
73359;SDS011;63092;43.582;19.528;2023-07-31T04:23:24;10.80;;;7.10;;
73359;SDS011;63092;43.582;19.528;2023-07-31T04:25:50;13.35;;;6.70;;
73359;SDS011;63092;43.582;19.528;2023-07-31T04:28:16;14.70;;;7.57;;
73359;SDS011;63092;43.582;19.528;2023-07-31T04:30:41;10.75;;;7.53;;
73359;SDS011;63092;43.582;19.528;2023-07-31T04:33:07;10.75;;;7.22;;
73359;SDS011;63092;43.582;19.528;2023-07-31T04:35:33;10.07;;;6.80;;
73359;SDS011;63092;43.582;19.528;2023-07-31T04:37:59;9.73;;;6.80;;
73359;SDS011;63092;43.582;19.528;2023-07-31T04:40:25;8.05;;;6.45;;
73359;SDS011;63092;43.582;19.528;2023-07-31T04:42:51;9.57;;;6.55;;
73359;SDS011;63092;43.582;19.528;2023-07-31T04:45:16;9.93;;;6.90;;
73359;SDS011;63092;43.582;19.528;2023-07-31T04:47:42;8.40;;;6.05;;
73359;SDS011;63092;43.582;19.528;2023-07-31T04:50:08;10.00;;;6.45;;
73359;SDS011;63092;43.582;19.528;2023-07-31T04:52:34;10.25;;;6.47;;
73359;SDS011;63092;43.582;19.528;2023-07-31T04:55:00;9.50;;;6.63;;
73359;SDS011;63092;43.582;19.528;2023-07-31T04:57:26;8.85;;;6.43;;
73359;SDS011;63092;43.582;19.528;2023-07-31T04:59:51;8.73;;;6.80;;
73359;SDS011;63092;43.582;19.528;2023-07-31T05:02:17;9.80;;;6.80;;
73359;SDS011;63092;43.582;19.528;2023-07-31T05:04:43;10.70;;;6.38;;
73359;SDS011;63092;43.582;19.528;2023-07-31T05:07:08;10.32;;;6.40;;
73359;SDS011;63092;43.582;19.528;2023-07-31T05:09:34;9.30;;;6.93;;
73359;SDS011;63092;43.582;19.528;2023-07-31T05:12:00;8.80;;;6.25;;
73359;SDS011;63092;43.582;19.528;2023-07-31T05:14:26;9.38;;;6.70;;
73359;SDS011;63092;43.582;19.528;2023-07-31T05:16:51;8.63;;;6.47;;
73359;SDS011;63092;43.582;19.528;2023-07-31T05:19:17;11.05;;;7.38;;
73359;SDS011;63092;43.582;19.528;2023-07-31T05:21:43;10.60;;;7.03;;
73359;SDS011;63092;43.582;19.528;2023-07-31T05:24:09;11.05;;;7.03;;
73359;SDS011;63092;43.582;19.528;2023-07-31T05:26:35;16.63;;;11.27;;
73359;SDS011;63092;43.582;19.528;2023-07-31T05:29:02;13.98;;;8.57;;
73359;SDS011;63092;43.582;19.528;2023-07-31T05:31:28;11.73;;;8.40;;
73359;SDS011;63092;43.582;19.528;2023-07-31T05:33:54;8.60;;;6.85;;
73359;SDS011;63092;43.582;19.528;2023-07-31T05:36:20;10.05;;;7.90;;
73359;SDS011;63092;43.582;19.528;2023-07-31T05:38:46;16.35;;;11.68;;
73359;SDS011;63092;43.582;19.528;2023-07-31T05:41:12;11.05;;;7.82;;
73359;SDS011;63092;43.582;19.528;2023-07-31T05:43:38;10.77;;;7.93;;
73359;SDS011;63092;43.582;19.528;2023-07-31T05:46:04;11.57;;;7.68;;
73359;SDS011;63092;43.582;19.528;2023-07-31T05:48:29;15.68;;;10.77;;
73359;SDS011;63092;43.582;19.528;2023-07-31T05:50:55;9.30;;;7.57;;
73359;SDS011;63092;43.582;19.528;2023-07-31T05:53:21;10.75;;;7.88;;
73359;SDS011;63092;43.582;19.528;2023-07-31T05:55:47;11.32;;;8.63;;
73359;SDS011;63092;43.582;19.528;2023-07-31T05:58:13;12.65;;;8.90;;
73359;SDS011;63092;43.582;19.528;2023-07-31T06:00:38;10.68;;;8.10;;
73359;SDS011;63092;43.582;19.528;2023-07-31T06:03:04;11.15;;;8.32;;
73359;SDS011;63092;43.582;19.528;2023-07-31T06:05:30;10.80;;;8.00;;
73359;SDS011;63092;43.582;19.528;2023-07-31T06:07:56;11.13;;;8.00;;
73359;SDS011;63092;43.582;19.528;2023-07-31T06:10:22;9.45;;;7.78;;
73359;SDS011;63092;43.582;19.528;2023-07-31T06:12:48;15.48;;;11.00;;
73359;SDS011;63092;43.582;19.528;2023-07-31T06:15:14;29.58;;;15.73;;
73359;SDS011;63092;43.582;19.528;2023-07-31T06:17:39;15.27;;;10.52;;
73359;SDS011;63092;43.582;19.528;2023-07-31T06:20:06;11.63;;;8.25;;
73359;SDS011;63092;43.582;19.528;2023-07-31T06:22:32;9.98;;;7.60;;
73359;SDS011;63092;43.582;19.528;2023-07-31T06:24:58;9.85;;;7.55;;
73359;SDS011;63092;43.582;19.528;2023-07-31T06:27:24;11.25;;;7.82;;
73359;SDS011;63092;43.582;19.528;2023-07-31T06:29:50;11.68;;;7.30;;
73359;SDS011;63092;43.582;19.528;2023-07-31T06:32:16;11.18;;;7.50;;
73359;SDS011;63092;43.582;19.528;2023-07-31T06:34:42;8.90;;;7.07;;
73359;SDS011;63092;43.582;19.528;2023-07-31T06:37:07;12.55;;;7.53;;
73359;SDS011;63092;43.582;19.528;2023-07-31T06:39:33;9.23;;;7.05;;
73359;SDS011;63092;43.582;19.528;2023-07-31T06:41:59;9.05;;;7.68;;
73359;SDS011;63092;43.582;19.528;2023-07-31T06:44:24;9.10;;;7.32;;
73359;SDS011;63092;43.582;19.528;2023-07-31T06:46:51;9.60;;;7.10;;
73359;SDS011;63092;43.582;19.528;2023-07-31T06:49:16;9.13;;;7.40;;
73359;SDS011;63092;43.582;19.528;2023-07-31T06:51:42;9.73;;;7.03;;
73359;SDS011;63092;43.582;19.528;2023-07-31T06:54:09;10.05;;;6.93;;
73359;SDS011;63092;43.582;19.528;2023-07-31T06:56:34;9.05;;;7.60;;
73359;SDS011;63092;43.582;19.528;2023-07-31T06:59:00;10.30;;;7.35;;
73359;SDS011;63092;43.582;19.528;2023-07-31T07:01:26;9.40;;;7.10;;
73359;SDS011;63092;43.582;19.528;2023-07-31T07:03:53;8.40;;;6.82;;
73359;SDS011;63092;43.582;19.528;2023-07-31T07:06:19;9.65;;;7.47;;
73359;SDS011;63092;43.582;19.528;2023-07-31T07:08:45;9.13;;;7.28;;
73359;SDS011;63092;43.582;19.528;2023-07-31T07:11:11;10.93;;;7.13;;
73359;SDS011;63092;43.582;19.528;2023-07-31T07:13:37;9.82;;;6.90;;
73359;SDS011;63092;43.582;19.528;2023-07-31T07:16:02;8.85;;;7.03;;
73359;SDS011;63092;43.582;19.528;2023-07-31T07:18:28;8.90;;;6.65;;
73359;SDS011;63092;43.582;19.528;2023-07-31T07:20:54;10.27;;;7.03;;
73359;SDS011;63092;43.582;19.528;2023-07-31T07:23:22;8.05;;;6.53;;
73359;SDS011;63092;43.582;19.528;2023-07-31T07:25:47;7.63;;;6.20;;
73359;SDS011;63092;43.582;19.528;2023-07-31T07:28:13;10.32;;;6.82;;
73359;SDS011;63092;43.582;19.528;2023-07-31T07:30:39;9.02;;;6.47;;
73359;SDS011;63092;43.582;19.528;2023-07-31T07:33:05;8.85;;;6.63;;
73359;SDS011;63092;43.582;19.528;2023-07-31T07:35:34;9.18;;;6.80;;
73359;SDS011;63092;43.582;19.528;2023-07-31T07:38:01;10.82;;;7.28;;
73359;SDS011;63092;43.582;19.528;2023-07-31T07:40:27;7.32;;;5.88;;
73359;SDS011;63092;43.582;19.528;2023-07-31T07:42:53;7.88;;;6.07;;
73359;SDS011;63092;43.582;19.528;2023-07-31T07:45:19;9.80;;;6.97;;
73359;SDS011;63092;43.582;19.528;2023-07-31T07:47:44;9.27;;;7.10;;
73359;SDS011;63092;43.582;19.528;2023-07-31T07:50:10;7.57;;;6.35;;
73359;SDS011;63092;43.582;19.528;2023-07-31T07:52:36;11.88;;;9.82;;
73359;SDS011;63092;43.582;19.528;2023-07-31T07:55:02;12.38;;;7.80;;
73359;SDS011;63092;43.582;19.528;2023-07-31T07:57:28;9.65;;;7.32;;
73359;SDS011;63092;43.582;19.528;2023-07-31T07:59:54;8.48;;;6.57;;
73359;SDS011;63092;43.582;19.528;2023-07-31T08:02:21;10.05;;;6.95;;
73359;SDS011;63092;43.582;19.528;2023-07-31T08:04:47;25.85;;;16.90;;
73359;SDS011;63092;43.582;19.528;2023-07-31T08:07:13;12.50;;;9.07;;
73359;SDS011;63092;43.582;19.528;2023-07-31T08:09:39;9.60;;;7.32;;
73359;SDS011;63092;43.582;19.528;2023-07-31T08:12:06;9.20;;;8.05;;
73359;SDS011;63092;43.582;19.528;2023-07-31T08:14:32;10.25;;;7.60;;
73359;SDS011;63092;43.582;19.528;2023-07-31T08:16:58;9.13;;;7.20;;
73359;SDS011;63092;43.582;19.528;2023-07-31T08:19:24;9.15;;;7.20;;
73359;SDS011;63092;43.582;19.528;2023-07-31T08:21:50;10.30;;;6.85;;
73359;SDS011;63092;43.582;19.528;2023-07-31T08:24:16;8.90;;;6.95;;
73359;SDS011;63092;43.582;19.528;2023-07-31T08:26:42;9.35;;;7.18;;
73359;SDS011;63092;43.582;19.528;2023-07-31T08:29:08;7.93;;;6.65;;
73359;SDS011;63092;43.582;19.528;2023-07-31T08:31:33;8.45;;;6.93;;
73359;SDS011;63092;43.582;19.528;2023-07-31T08:33:59;9.45;;;7.53;;
73359;SDS011;63092;43.582;19.528;2023-07-31T08:36:36;12.02;;;6.90;;
73359;SDS011;63092;43.582;19.528;2023-07-31T08:39:15;9.35;;;7.63;;
73359;SDS011;63092;43.582;19.528;2023-07-31T08:41:45;9.82;;;7.80;;
73359;SDS011;63092;43.582;19.528;2023-07-31T08:44:11;8.88;;;7.38;;
73359;SDS011;63092;43.582;19.528;2023-07-31T08:46:37;9.40;;;7.63;;
73359;SDS011;63092;43.582;19.528;2023-07-31T08:49:06;11.10;;;8.07;;
73359;SDS011;63092;43.582;19.528;2023-07-31T08:51:36;9.82;;;8.10;;
73359;SDS011;63092;43.582;19.528;2023-07-31T08:56:31;9.25;;;7.57;;
73359;SDS011;63092;43.582;19.528;2023-07-31T08:58:58;8.68;;;7.30;;
73359;SDS011;63092;43.582;19.528;2023-07-31T09:01:27;10.77;;;8.77;;
73359;SDS011;63092;43.582;19.528;2023-07-31T09:06:22;10.65;;;7.70;;
73359;SDS011;63092;43.582;19.528;2023-07-31T09:08:49;8.82;;;7.50;;
73359;SDS011;63092;43.582;19.528;2023-07-31T09:11:15;8.75;;;6.90;;
73359;SDS011;63092;43.582;19.528;2023-07-31T09:13:41;9.52;;;7.13;;
73359;SDS011;63092;43.582;19.528;2023-07-31T09:16:08;10.77;;;7.97;;
73359;SDS011;63092;43.582;19.528;2023-07-31T09:18:53;9.73;;;7.03;;
73359;SDS011;63092;43.582;19.528;2023-07-31T09:21:21;9.85;;;8.15;;
73359;SDS011;63092;43.582;19.528;2023-07-31T09:23:49;9.65;;;7.53;;
73359;SDS011;63092;43.582;19.528;2023-07-31T09:26:30;8.90;;;7.18;;
73359;SDS011;63092;43.582;19.528;2023-07-31T09:29:00;9.13;;;7.05;;
73359;SDS011;63092;43.582;19.528;2023-07-31T09:31:39;8.55;;;6.85;;
73359;SDS011;63092;43.582;19.528;2023-07-31T09:34:08;7.78;;;6.47;;
73359;SDS011;63092;43.582;19.528;2023-07-31T09:36:54;7.55;;;6.40;;
73359;SDS011;63092;43.582;19.528;2023-07-31T09:39:19;9.00;;;7.00;;
73359;SDS011;63092;43.582;19.528;2023-07-31T09:41:55;8.30;;;7.15;;
73359;SDS011;63092;43.582;19.528;2023-07-31T09:44:21;8.32;;;6.75;;
73359;SDS011;63092;43.582;19.528;2023-07-31T09:47:01;8.35;;;7.20;;
73359;SDS011;63092;43.582;19.528;2023-07-31T09:49:27;7.80;;;6.90;;
73359;SDS011;63092;43.582;19.528;2023-07-31T09:51:54;8.00;;;6.72;;
73359;SDS011;63092;43.582;19.528;2023-07-31T09:54:20;7.90;;;6.78;;
73359;SDS011;63092;43.582;19.528;2023-07-31T09:56:47;9.23;;;7.03;;
73359;SDS011;63092;43.582;19.528;2023-07-31T09:59:17;8.68;;;6.88;;
73359;SDS011;63092;43.582;19.528;2023-07-31T10:01:44;7.90;;;6.38;;
73359;SDS011;63092;43.582;19.528;2023-07-31T10:04:11;8.73;;;6.93;;
73359;SDS011;63092;43.582;19.528;2023-07-31T10:06:39;11.48;;;8.25;;
73359;SDS011;63092;43.582;19.528;2023-07-31T10:09:07;8.27;;;6.93;;
73359;SDS011;63092;43.582;19.528;2023-07-31T10:11:43;7.25;;;6.50;;
73359;SDS011;63092;43.582;19.528;2023-07-31T10:14:17;7.22;;;5.40;;
73359;SDS011;63092;43.582;19.528;2023-07-31T10:16:45;6.65;;;5.90;;
73359;SDS011;63092;43.582;19.528;2023-07-31T10:19:11;10.77;;;8.25;;
73359;SDS011;63092;43.582;19.528;2023-07-31T10:21:37;9.57;;;7.55;;
73359;SDS011;63092;43.582;19.528;2023-07-31T10:24:03;11.73;;;8.00;;
73359;SDS011;63092;43.582;19.528;2023-07-31T10:26:31;10.68;;;6.90;;
73359;SDS011;63092;43.582;19.528;2023-07-31T10:28:58;7.45;;;6.32;;
73359;SDS011;63092;43.582;19.528;2023-07-31T10:31:24;7.53;;;6.32;;
73359;SDS011;63092;43.582;19.528;2023-07-31T10:33:51;6.25;;;5.57;;
73359;SDS011;63092;43.582;19.528;2023-07-31T10:36:19;7.10;;;5.97;;
73359;SDS011;63092;43.582;19.528;2023-07-31T10:38:46;9.18;;;6.05;;
73359;SDS011;63092;43.582;19.528;2023-07-31T10:41:14;6.38;;;5.55;;
73359;SDS011;63092;43.582;19.528;2023-07-31T10:43:40;6.68;;;5.30;;
73359;SDS011;63092;43.582;19.528;2023-07-31T10:46:06;6.05;;;5.43;;
73359;SDS011;63092;43.582;19.528;2023-07-31T10:48:34;10.13;;;6.73;;
73359;SDS011;63092;43.582;19.528;2023-07-31T10:51:02;6.50;;;5.70;;
73359;SDS011;63092;43.582;19.528;2023-07-31T10:53:35;9.95;;;6.25;;
73359;SDS011;63092;43.582;19.528;2023-07-31T10:56:06;5.90;;;4.30;;
73359;SDS011;63092;43.582;19.528;2023-07-31T10:58:34;5.60;;;4.03;;
73359;SDS011;63092;43.582;19.528;2023-07-31T11:01:01;5.68;;;4.43;;
73359;SDS011;63092;43.582;19.528;2023-07-31T11:03:45;5.18;;;4.20;;
73359;SDS011;63092;43.582;19.528;2023-07-31T11:06:11;6.38;;;4.80;;
73359;SDS011;63092;43.582;19.528;2023-07-31T11:08:47;5.53;;;4.88;;
73359;SDS011;63092;43.582;19.528;2023-07-31T11:11:15;6.72;;;5.28;;
73359;SDS011;63092;43.582;19.528;2023-07-31T11:13:43;8.10;;;6.70;;
73359;SDS011;63092;43.582;19.528;2023-07-31T11:16:17;5.97;;;5.25;;
73359;SDS011;63092;43.582;19.528;2023-07-31T11:18:45;6.17;;;5.37;;
73359;SDS011;63092;43.582;19.528;2023-07-31T11:21:13;6.75;;;5.82;;
73359;SDS011;63092;43.582;19.528;2023-07-31T11:23:40;7.03;;;6.00;;
73359;SDS011;63092;43.582;19.528;2023-07-31T11:26:07;5.95;;;5.20;;
73359;SDS011;63092;43.582;19.528;2023-07-31T11:28:34;6.43;;;5.10;;
73359;SDS011;63092;43.582;19.528;2023-07-31T11:31:01;6.63;;;5.93;;
73359;SDS011;63092;43.582;19.528;2023-07-31T11:33:28;6.28;;;4.97;;
73359;SDS011;63092;43.582;19.528;2023-07-31T11:35:54;5.90;;;5.30;;
73359;SDS011;63092;43.582;19.528;2023-07-31T11:40:49;6.78;;;5.07;;
73359;SDS011;63092;43.582;19.528;2023-07-31T11:43:17;5.53;;;4.78;;
73359;SDS011;63092;43.582;19.528;2023-07-31T11:45:47;7.05;;;4.90;;
73359;SDS011;63092;43.582;19.528;2023-07-31T11:48:20;5.55;;;4.95;;
73359;SDS011;63092;43.582;19.528;2023-07-31T11:50:48;6.43;;;4.25;;
73359;SDS011;63092;43.582;19.528;2023-07-31T11:54:00;5.38;;;4.45;;
73359;SDS011;63092;43.582;19.528;2023-07-31T11:56:17;5.78;;;4.60;;
73359;SDS011;63092;43.582;19.528;2023-07-31T11:58:45;5.72;;;4.35;;
73359;SDS011;63092;43.582;19.528;2023-07-31T12:03:40;5.88;;;4.82;;
73359;SDS011;63092;43.582;19.528;2023-07-31T12:06:07;6.97;;;5.15;;
73359;SDS011;63092;43.582;19.528;2023-07-31T12:08:33;5.90;;;4.97;;
73359;SDS011;63092;43.582;19.528;2023-07-31T12:11:03;5.57;;;4.45;;
73359;SDS011;63092;43.582;19.528;2023-07-31T12:13:30;5.53;;;4.50;;
73359;SDS011;63092;43.582;19.528;2023-07-31T12:15:59;4.70;;;3.85;;
73359;SDS011;63092;43.582;19.528;2023-07-31T12:18:29;5.45;;;4.30;;
73359;SDS011;63092;43.582;19.528;2023-07-31T12:20:59;5.32;;;4.50;;
73359;SDS011;63092;43.582;19.528;2023-07-31T12:23:26;5.32;;;4.57;;
73359;SDS011;63092;43.582;19.528;2023-07-31T12:26:02;6.60;;;4.72;;
73359;SDS011;63092;43.582;19.528;2023-07-31T12:28:29;6.22;;;5.60;;
73359;SDS011;63092;43.582;19.528;2023-07-31T12:30:59;6.82;;;5.53;;
73359;SDS011;63092;43.582;19.528;2023-07-31T12:33:33;8.70;;;6.25;;
73359;SDS011;63092;43.582;19.528;2023-07-31T12:36:01;6.53;;;4.88;;
73359;SDS011;63092;43.582;19.528;2023-07-31T12:38:29;5.70;;;4.80;;
73359;SDS011;63092;43.582;19.528;2023-07-31T12:40:55;5.00;;;4.30;;
73359;SDS011;63092;43.582;19.528;2023-07-31T12:43:21;5.35;;;4.30;;
73359;SDS011;63092;43.582;19.528;2023-07-31T12:45:46;5.72;;;4.57;;
73359;SDS011;63092;43.582;19.528;2023-07-31T12:48:13;5.60;;;4.35;;
73359;SDS011;63092;43.582;19.528;2023-07-31T12:50:39;4.90;;;4.10;;
73359;SDS011;63092;43.582;19.528;2023-07-31T12:53:05;5.65;;;4.03;;
73359;SDS011;63092;43.582;19.528;2023-07-31T12:55:31;4.20;;;3.30;;
73359;SDS011;63092;43.582;19.528;2023-07-31T12:57:59;4.63;;;3.40;;
73359;SDS011;63092;43.582;19.528;2023-07-31T13:00:26;4.68;;;3.47;;
73359;SDS011;63092;43.582;19.528;2023-07-31T13:02:52;4.85;;;3.28;;
73359;SDS011;63092;43.582;19.528;2023-07-31T13:05:17;5.35;;;3.30;;
73359;SDS011;63092;43.582;19.528;2023-07-31T13:07:45;4.60;;;3.33;;
73359;SDS011;63092;43.582;19.528;2023-07-31T13:10:11;4.78;;;3.00;;
73359;SDS011;63092;43.582;19.528;2023-07-31T13:12:37;4.68;;;3.47;;
73359;SDS011;63092;43.582;19.528;2023-07-31T13:15:04;4.18;;;3.38;;
73359;SDS011;63092;43.582;19.528;2023-07-31T13:17:30;4.90;;;3.30;;
73359;SDS011;63092;43.582;19.528;2023-07-31T13:19:56;4.00;;;2.90;;
73359;SDS011;63092;43.582;19.528;2023-07-31T13:22:22;4.28;;;2.97;;
73359;SDS011;63092;43.582;19.528;2023-07-31T13:24:48;4.55;;;3.20;;
73359;SDS011;63092;43.582;19.528;2023-07-31T13:27:14;4.13;;;2.92;;
73359;SDS011;63092;43.582;19.528;2023-07-31T13:29:45;4.40;;;3.30;;
73359;SDS011;63092;43.582;19.528;2023-07-31T13:32:11;4.43;;;3.20;;
73359;SDS011;63092;43.582;19.528;2023-07-31T13:34:37;4.07;;;3.33;;
73359;SDS011;63092;43.582;19.528;2023-07-31T13:37:03;5.00;;;2.75;;
73359;SDS011;63092;43.582;19.528;2023-07-31T13:39:31;4.97;;;3.10;;
73359;SDS011;63092;43.582;19.528;2023-07-31T13:41:57;4.55;;;3.22;;
73359;SDS011;63092;43.582;19.528;2023-07-31T13:44:23;4.35;;;3.10;;
73359;SDS011;63092;43.582;19.528;2023-07-31T13:46:49;5.45;;;3.13;;
73359;SDS011;63092;43.582;19.528;2023-07-31T13:49:15;4.32;;;3.00;;
73359;SDS011;63092;43.582;19.528;2023-07-31T13:51:40;5.40;;;2.80;;
73359;SDS011;63092;43.582;19.528;2023-07-31T13:54:06;4.70;;;3.08;;
73359;SDS011;63092;43.582;19.528;2023-07-31T13:56:32;4.25;;;2.88;;
73359;SDS011;63092;43.582;19.528;2023-07-31T13:59:03;3.90;;;2.60;;
73359;SDS011;63092;43.582;19.528;2023-07-31T14:01:29;3.80;;;2.58;;
73359;SDS011;63092;43.582;19.528;2023-07-31T14:03:56;3.97;;;2.78;;
73359;SDS011;63092;43.582;19.528;2023-07-31T14:06:21;4.38;;;2.40;;
73359;SDS011;63092;43.582;19.528;2023-07-31T14:08:47;5.20;;;3.50;;
73359;SDS011;63092;43.582;19.528;2023-07-31T14:11:13;5.57;;;2.70;;
73359;SDS011;63092;43.582;19.528;2023-07-31T14:13:38;4.25;;;3.03;;
73359;SDS011;63092;43.582;19.528;2023-07-31T14:16:04;4.18;;;2.90;;
73359;SDS011;63092;43.582;19.528;2023-07-31T14:18:30;3.97;;;2.58;;
73359;SDS011;63092;43.582;19.528;2023-07-31T14:20:57;5.60;;;2.60;;
73359;SDS011;63092;43.582;19.528;2023-07-31T14:23:22;6.47;;;3.90;;
73359;SDS011;63092;43.582;19.528;2023-07-31T14:25:48;6.97;;;4.30;;
73359;SDS011;63092;43.582;19.528;2023-07-31T14:28:14;4.20;;;2.83;;
73359;SDS011;63092;43.582;19.528;2023-07-31T14:30:39;12.00;;;8.70;;
73359;SDS011;63092;43.582;19.528;2023-07-31T14:33:05;4.45;;;2.75;;
73359;SDS011;63092;43.582;19.528;2023-07-31T14:35:31;4.68;;;2.40;;
73359;SDS011;63092;43.582;19.528;2023-07-31T14:37:57;4.80;;;2.40;;
73359;SDS011;63092;43.582;19.528;2023-07-31T14:40:23;3.70;;;2.30;;
73359;SDS011;63092;43.582;19.528;2023-07-31T14:42:49;4.70;;;2.63;;
73359;SDS011;63092;43.582;19.528;2023-07-31T14:45:14;4.47;;;2.53;;